createdAt,value
2018-03-31T00:01:15.962Z,22.37
2018-03-31T00:03:42.957Z,14.87
2018-03-31T00:06:09.961Z,14.30
2018-03-31T00:08:37.278Z,20.87
2018-03-31T00:11:04.281Z,14.17
2018-03-31T00:13:31.319Z,13.90
2018-03-31T00:15:58.506Z,16.27
2018-03-31T00:18:25.510Z,16.10
2018-03-31T00:20:52.517Z,18.70
2018-03-31T00:23:19.841Z,17.87
2018-03-31T00:25:46.843Z,13.67
2018-03-31T00:28:13.860Z,14.17
2018-03-31T00:30:40.854Z,18.07
2018-03-31T00:33:07.856Z,15.43
2018-03-31T00:35:35.007Z,12.10
2018-03-31T00:38:02.014Z,11.20
2018-03-31T00:40:29.022Z,12.43
2018-03-31T00:42:56.337Z,14.33
2018-03-31T00:45:23.346Z,17.20
2018-03-31T00:47:50.361Z,18.47
2018-03-31T00:50:17.466Z,14.57
2018-03-31T00:52:44.476Z,16.73
2018-03-31T00:55:11.484Z,13.07
2018-03-31T00:57:38.567Z,11.40
2018-03-31T01:00:05.574Z,13.10
2018-03-31T01:02:32.578Z,18.23
2018-03-31T01:04:59.754Z,13.87
2018-03-31T01:07:26.772Z,18.10
2018-03-31T01:09:53.766Z,16.60
2018-03-31T01:12:20.822Z,15.63
2018-03-31T01:14:47.839Z,12.97
2018-03-31T01:17:14.843Z,13.37
2018-03-31T01:19:41.882Z,16.10
2018-03-31T01:22:08.886Z,13.53
2018-03-31T01:24:35.921Z,11.30
2018-03-31T01:27:02.955Z,12.57
2018-03-31T01:29:29.949Z,11.77
2018-03-31T01:31:56.954Z,11.90
2018-03-31T01:34:24.005Z,16.20
2018-03-31T01:36:51.011Z,14.07
2018-03-31T01:39:18.010Z,15.20
2018-03-31T01:41:45.050Z,22.83
2018-03-31T01:44:12.062Z,16.27
2018-03-31T01:46:39.078Z,16.50
2018-03-31T01:49:06.114Z,13.47
2018-03-31T01:51:33.110Z,15.20
2018-03-31T01:54:00.111Z,13.33
2018-03-31T01:56:27.259Z,14.07
2018-03-31T01:58:54.262Z,15.20
2018-03-31T02:01:21.256Z,14.63
2018-03-31T02:03:48.304Z,12.87
2018-03-31T02:06:15.302Z,12.57
2018-03-31T02:08:42.370Z,12.77
2018-03-31T02:11:09.413Z,13.47
2018-03-31T02:13:36.413Z,16.03
2018-03-31T02:16:03.422Z,14.77
2018-03-31T02:18:30.467Z,15.00
2018-03-31T02:20:57.476Z,17.00
2018-03-31T02:23:24.473Z,14.20
2018-03-31T02:25:51.560Z,18.37
2018-03-31T02:28:18.561Z,15.13
2018-03-31T02:30:45.567Z,16.67
2018-03-31T02:33:12.758Z,17.93
2018-03-31T02:35:39.770Z,27.57
2018-03-31T02:38:06.766Z,17.20
2018-03-31T02:40:33.919Z,16.47
2018-03-31T02:43:00.922Z,22.77
2018-03-31T02:45:27.936Z,22.27
2018-03-31T02:47:54.980Z,22.43
2018-03-31T02:50:21.982Z,20.77
2018-03-31T02:52:49.926Z,21.97
2018-03-31T02:55:17.101Z,19.20
2018-03-31T02:57:44.114Z,21.83
2018-03-31T03:00:11.799Z,24.07
2018-03-31T03:02:39.301Z,17.93
2018-03-31T03:05:06.320Z,18.90
2018-03-31T03:07:33.339Z,19.63
2018-03-31T03:10:00.394Z,16.57
2018-03-31T03:12:27.402Z,23.17
2018-03-31T03:14:54.419Z,15.53
2018-03-31T03:17:21.478Z,16.10
2018-03-31T03:19:48.476Z,14.73
2018-03-31T03:22:15.486Z,10.03
2018-03-31T03:24:42.947Z,16.00
2018-03-31T03:27:09.946Z,14.33
2018-03-31T03:29:36.963Z,14.90
2018-03-31T03:32:04.019Z,18.87
2018-03-31T03:34:31.031Z,15.17
2018-03-31T03:36:58.067Z,19.50
2018-03-31T03:39:25.141Z,27.17
2018-03-31T03:41:52.149Z,23.50
2018-03-31T03:44:19.161Z,20.53
2018-03-31T03:46:46.198Z,21.03
2018-03-31T03:49:13.206Z,16.53
2018-03-31T03:51:40.210Z,18.07
2018-03-31T03:54:07.390Z,18.20
2018-03-31T03:56:34.398Z,15.47
2018-03-31T03:59:01.421Z,14.47
2018-03-31T04:01:28.501Z,18.30
2018-03-31T04:03:55.497Z,16.10
2018-03-31T04:06:22.507Z,16.57
2018-03-31T04:08:49.981Z,15.67
2018-03-31T04:11:16.997Z,18.47
2018-03-31T04:13:44.002Z,19.73
2018-03-31T04:16:11.129Z,14.27
2018-03-31T04:18:38.130Z,24.60
2018-03-31T04:21:05.144Z,18.20
2018-03-31T04:23:32.185Z,20.83
2018-03-31T04:25:59.200Z,21.33
2018-03-31T04:28:26.216Z,15.87
2018-03-31T04:30:53.220Z,24.60
2018-03-31T04:33:20.261Z,17.67
2018-03-31T04:35:47.426Z,17.10
2018-03-31T04:38:14.449Z,20.37
2018-03-31T04:40:41.451Z,17.87
2018-03-31T04:43:08.593Z,18.90
2018-03-31T04:45:35.601Z,28.33
2018-03-31T04:48:02.618Z,22.53
2018-03-31T04:50:29.777Z,23.20
2018-03-31T04:52:56.817Z,23.20
2018-03-31T04:55:23.830Z,24.40
2018-03-31T04:57:50.865Z,23.03
2018-03-31T05:00:17.874Z,30.40
2018-03-31T05:02:44.919Z,28.00
2018-03-31T05:05:12.144Z,22.63
2018-03-31T05:07:39.182Z,27.17
2018-03-31T05:10:06.197Z,24.93
2018-03-31T05:12:33.261Z,24.83
2018-03-31T05:15:00.286Z,22.57
2018-03-31T05:17:27.333Z,47.03
2018-03-31T05:19:54.849Z,42.83
2018-03-31T05:22:21.858Z,37.53
2018-03-31T05:24:48.861Z,36.13
2018-03-31T05:27:15.899Z,37.20
2018-03-31T05:29:42.918Z,40.50
2018-03-31T05:32:09.932Z,52.37
2018-03-31T05:34:37.151Z,42.50
2018-03-31T05:37:04.161Z,38.30
2018-03-31T05:39:31.175Z,61.70
2018-03-31T05:41:58.388Z,57.37
2018-03-31T05:44:25.404Z,48.10
2018-03-31T05:46:52.434Z,96.20
2018-03-31T05:49:19.833Z,44.00
2018-03-31T05:51:46.845Z,43.57
2018-03-31T05:54:13.882Z,120.10
2018-03-31T05:56:41.042Z,99.07
2018-03-31T05:59:08.047Z,70.07
2018-03-31T06:01:35.050Z,50.43
2018-03-31T06:04:02.234Z,51.70
2018-03-31T06:06:29.248Z,81.30
2018-03-31T06:08:56.289Z,51.73
2018-03-31T06:11:23.422Z,47.87
2018-03-31T06:13:50.435Z,47.30
2018-03-31T06:16:17.464Z,47.83
2018-03-31T06:18:44.494Z,42.60
2018-03-31T06:21:11.541Z,36.90
2018-03-31T06:23:38.533Z,36.60
2018-03-31T06:26:05.766Z,43.40
2018-03-31T06:28:32.778Z,84.17
2018-03-31T06:30:59.790Z,39.40
2018-03-31T06:33:26.858Z,46.17
2018-03-31T06:35:53.865Z,52.23
2018-03-31T06:38:20.886Z,46.13
2018-03-31T06:40:47.931Z,56.73
2018-03-31T06:43:14.942Z,55.97
2018-03-31T06:45:41.966Z,48.43
2018-03-31T06:48:09.154Z,46.77
2018-03-31T06:50:36.165Z,43.60
2018-03-31T06:53:03.195Z,48.87
2018-03-31T06:55:30.239Z,57.70
2018-03-31T06:57:57.254Z,74.37
2018-03-31T07:00:24.280Z,60.17
2018-03-31T07:02:51.611Z,50.73
2018-03-31T07:05:18.647Z,66.67
2018-03-31T07:07:45.651Z,62.13
2018-03-31T07:10:12.844Z,54.43
2018-03-31T07:12:39.881Z,54.20
2018-03-31T07:15:06.908Z,49.73
2018-03-31T07:17:34.057Z,65.80
2018-03-31T07:20:01.071Z,53.17
2018-03-31T07:22:28.081Z,58.30
2018-03-31T07:24:55.143Z,286.33
2018-03-31T07:27:22.158Z,64.07
2018-03-31T07:29:49.190Z,74.40
2018-03-31T07:32:16.223Z,101.37
2018-03-31T07:34:43.232Z,59.77
2018-03-31T07:37:10.260Z,78.17
2018-03-31T07:39:37.312Z,60.10
2018-03-31T07:42:04.321Z,67.03
2018-03-31T07:44:31.332Z,88.97
2018-03-31T07:46:58.494Z,111.83
2018-03-31T07:49:25.507Z,76.43
2018-03-31T07:51:52.516Z,54.20
2018-03-31T07:54:19.550Z,43.73
2018-03-31T07:56:46.563Z,53.83
2018-03-31T07:59:13.588Z,45.53
2018-03-31T08:01:40.651Z,52.83
2018-03-31T08:04:07.664Z,50.63
2018-03-31T08:06:34.668Z,49.40
2018-03-31T08:09:01.875Z,57.10
2018-03-31T08:11:28.897Z,52.30
2018-03-31T08:13:55.950Z,48.80
2018-03-31T08:16:23.298Z,105.60
2018-03-31T08:18:50.316Z,61.07
2018-03-31T08:21:17.334Z,51.90
2018-03-31T08:23:44.670Z,43.50
2018-03-31T08:26:11.684Z,71.70
2018-03-31T08:28:38.698Z,50.90
2018-03-31T08:31:05.714Z,56.33
2018-03-31T08:33:32.727Z,54.23
2018-03-31T08:36:00.113Z,48.83
2018-03-31T08:38:27.126Z,48.33
2018-03-31T08:40:54.143Z,48.27
2018-03-31T08:43:21.517Z,49.03
2018-03-31T08:52:30.070Z,42.20
2018-03-31T08:54:57.076Z,49.53
2018-03-31T08:57:24.087Z,54.13
2018-03-31T08:59:51.182Z,52.67
2018-03-31T09:02:18.202Z,47.47
2018-03-31T09:04:45.221Z,38.93
2018-03-31T09:07:12.308Z,47.53
2018-03-31T09:09:39.337Z,44.30
2018-03-31T09:12:06.362Z,35.03
2018-03-31T09:14:33.556Z,68.80
2018-03-31T09:17:00.566Z,64.10
2018-03-31T09:19:27.586Z,46.43
2018-03-31T09:21:54.744Z,41.70
2018-03-31T09:24:21.745Z,73.03
2018-03-31T09:26:48.780Z,65.80
2018-03-31T09:29:15.850Z,42.90
2018-03-31T09:31:42.893Z,87.57
2018-03-31T09:34:09.896Z,47.67
2018-03-31T09:36:37.120Z,60.07
2018-03-31T09:39:04.166Z,41.93
2018-03-31T09:41:31.185Z,47.53
2018-03-31T09:43:58.377Z,81.80
2018-03-31T09:46:25.395Z,41.10
2018-03-31T09:48:52.402Z,35.53
2018-03-31T09:51:19.450Z,33.53
2018-03-31T09:53:46.498Z,30.53
2018-03-31T09:56:13.515Z,35.13
2018-03-31T09:58:40.560Z,39.50
2018-03-31T10:01:07.584Z,38.20
2018-03-31T10:03:34.601Z,42.03
2018-03-31T10:06:01.713Z,37.00
2018-03-31T10:08:28.691Z,33.60
2018-03-31T10:10:55.695Z,33.03
2018-03-31T10:13:22.721Z,30.00
2018-03-31T10:15:49.723Z,36.03
2018-03-31T10:18:16.735Z,30.47
2018-03-31T10:20:43.920Z,18.43
2018-03-31T10:23:10.924Z,27.37
2018-03-31T10:25:37.938Z,25.67
2018-03-31T10:28:05.133Z,14.43
2018-03-31T10:30:32.141Z,20.70
2018-03-31T10:32:59.148Z,15.83
2018-03-31T10:35:26.291Z,18.47
2018-03-31T10:37:53.343Z,11.47
2018-03-31T10:40:20.461Z,11.03
2018-03-31T10:42:47.498Z,18.20
2018-03-31T10:45:14.513Z,12.83
2018-03-31T10:47:41.539Z,10.17
2018-03-31T10:50:08.715Z,6.67
2018-03-31T10:52:35.759Z,81.20
2018-03-31T10:55:02.770Z,35.50
2018-03-31T10:57:29.843Z,85.77
2018-03-31T10:59:56.866Z,155.93
2018-03-31T11:02:23.915Z,13.40
2018-03-31T11:04:51.109Z,7.03
2018-03-31T11:07:18.134Z,8.03
2018-03-31T11:09:45.147Z,16.80
2018-03-31T11:12:12.366Z,5.80
2018-03-31T11:14:39.414Z,5.97
2018-03-31T11:17:06.434Z,9.37
2018-03-31T11:19:33.502Z,6.03
2018-03-31T11:22:00.523Z,9.03
2018-03-31T11:24:27.547Z,3.90
2018-03-31T11:26:54.606Z,6.43
2018-03-31T11:29:21.612Z,3.27
2018-03-31T11:31:48.645Z,7.13
2018-03-31T11:34:15.808Z,4.53
2018-03-31T11:36:43.370Z,5.10
2018-03-31T11:39:10.373Z,3.47
2018-03-31T11:41:37.542Z,2.43
2018-03-31T11:44:04.553Z,2.13
2018-03-31T11:46:31.569Z,2.23
2018-03-31T11:48:58.924Z,2.33
2018-03-31T11:51:25.934Z,1.37
2018-03-31T11:53:52.937Z,2.80
2018-03-31T11:56:20.142Z,2.03
2018-03-31T11:58:47.146Z,6.07
2018-03-31T12:01:14.173Z,5.00
2018-03-31T12:03:41.497Z,2.57
2018-03-31T12:06:08.522Z,6.00
2018-03-31T12:08:35.530Z,1.90
2018-03-31T12:11:02.719Z,2.00
2018-03-31T12:13:29.749Z,10.93
2018-03-31T12:15:56.774Z,29.40
2018-03-31T12:18:23.970Z,3.93
2018-03-31T12:20:50.982Z,4.00
2018-03-31T12:23:17.995Z,1.20
2018-03-31T12:25:45.029Z,2.63
2018-03-31T12:28:12.041Z,2.50
2018-03-31T12:30:39.042Z,7.00
2018-03-31T12:33:06.082Z,4.10
2018-03-31T12:35:33.103Z,2.30
2018-03-31T12:38:00.120Z,6.23
2018-03-31T12:40:27.292Z,3.43
2018-03-31T12:42:54.308Z,3.67
2018-03-31T12:45:21.332Z,3.27
2018-03-31T12:47:48.526Z,3.43
2018-03-31T12:50:15.545Z,5.73
2018-03-31T12:52:42.562Z,2.97
2018-03-31T12:55:09.610Z,4.77
2018-03-31T12:57:36.623Z,2.00
2018-03-31T13:00:03.636Z,6.13
2018-03-31T13:02:30.763Z,4.60
2018-03-31T13:04:57.777Z,2.77
2018-03-31T13:07:24.777Z,4.67
2018-03-31T13:09:51.959Z,5.27
2018-03-31T13:12:18.967Z,1.57
2018-03-31T13:14:46.007Z,1.40
2018-03-31T13:17:13.038Z,6.07
2018-03-31T13:19:40.046Z,1.77
2018-03-31T13:22:07.089Z,5.13
2018-03-31T13:24:34.304Z,4.33
2018-03-31T13:27:01.311Z,3.43
2018-03-31T13:29:28.333Z,3.07
2018-03-31T13:31:55.341Z,4.20
2018-03-31T13:34:22.362Z,2.20
2018-03-31T13:36:49.850Z,8.13
2018-03-31T13:39:16.854Z,2.30
2018-03-31T13:41:43.881Z,7.33
2018-03-31T13:44:10.926Z,2.80
2018-03-31T13:46:37.977Z,4.00
2018-03-31T13:49:04.992Z,1.50
2018-03-31T13:51:32.394Z,3.37
2018-03-31T13:53:59.391Z,4.50
2018-03-31T13:56:26.387Z,7.10
2018-03-31T13:58:53.466Z,3.23
2018-03-31T14:01:20.473Z,2.23
2018-03-31T14:03:47.481Z,2.90
2018-03-31T14:06:14.628Z,2.70
2018-03-31T14:08:41.647Z,2.10
2018-03-31T14:11:08.658Z,1.17
2018-03-31T14:13:35.741Z,3.93
2018-03-31T14:16:02.738Z,4.03
2018-03-31T14:18:29.742Z,2.40
2018-03-31T14:20:56.938Z,2.17
2018-03-31T14:23:23.938Z,2.57
2018-03-31T14:25:50.949Z,3.17
2018-03-31T14:28:18.098Z,3.53
2018-03-31T14:30:45.106Z,2.70
2018-03-31T14:33:12.117Z,2.23
2018-03-31T14:35:39.263Z,6.30
2018-03-31T14:38:06.301Z,3.87
2018-03-31T14:40:33.311Z,3.00
2018-03-31T14:43:01.369Z,2.47
2018-03-31T14:45:28.399Z,2.57
2018-03-31T14:47:55.422Z,3.07
2018-03-31T14:50:22.468Z,2.90
2018-03-31T14:52:49.486Z,7.80
2018-03-31T14:55:16.518Z,3.67
2018-03-31T14:57:43.585Z,2.37
2018-03-31T15:00:10.587Z,3.97
2018-03-31T15:02:37.649Z,3.97
2018-03-31T15:05:04.703Z,4.80
2018-03-31T15:07:31.704Z,2.83
2018-03-31T15:09:58.713Z,3.93
2018-03-31T15:12:25.755Z,4.57
2018-03-31T15:14:52.785Z,4.90
2018-03-31T15:17:19.799Z,4.00
2018-03-31T15:19:46.995Z,6.20
2018-03-31T15:22:14.026Z,2.00
2018-03-31T15:24:41.057Z,4.83
2018-03-31T15:27:08.184Z,2.63
2018-03-31T15:29:35.266Z,10.73
2018-03-31T15:32:02.250Z,2.73
2018-03-31T15:34:29.298Z,2.17
2018-03-31T15:36:56.306Z,2.33
2018-03-31T15:39:23.348Z,5.53
2018-03-31T15:41:50.420Z,9.03
2018-03-31T15:44:17.426Z,4.53
2018-03-31T15:46:44.422Z,7.03
2018-03-31T15:49:11.493Z,4.80
2018-03-31T15:51:38.506Z,2.57
2018-03-31T15:54:05.514Z,14.00
2018-03-31T15:56:32.571Z,5.07
2018-03-31T15:58:59.592Z,3.23
2018-03-31T16:01:26.594Z,8.17
2018-03-31T16:03:53.781Z,4.97
2018-03-31T16:06:20.797Z,10.53
2018-03-31T16:08:47.814Z,15.87
2018-03-31T16:11:15.006Z,5.43
2018-03-31T16:13:42.045Z,6.67
2018-03-31T16:16:09.066Z,7.97
2018-03-31T16:18:36.105Z,5.07
2018-03-31T16:21:03.120Z,4.33
2018-03-31T16:23:30.159Z,3.20
2018-03-31T16:25:57.203Z,8.10
2018-03-31T16:28:24.210Z,3.07
2018-03-31T16:30:51.235Z,5.30
2018-03-31T16:33:18.734Z,8.63
2018-03-31T16:35:45.764Z,5.27
2018-03-31T16:38:12.783Z,3.50
2018-03-31T16:40:39.827Z,7.13
2018-03-31T16:43:06.837Z,9.73
2018-03-31T16:45:33.851Z,5.10
2018-03-31T16:48:00.904Z,7.63
2018-03-31T16:50:27.924Z,2.20
2018-03-31T16:52:54.951Z,8.77
2018-03-31T16:55:22.036Z,8.27
2018-03-31T16:57:49.088Z,11.97
2018-03-31T17:00:16.116Z,3.50
2018-03-31T17:02:43.447Z,5.27
2018-03-31T17:05:10.466Z,4.87
2018-03-31T17:07:37.476Z,8.30
2018-03-31T17:10:04.901Z,3.03
2018-03-31T17:12:31.917Z,2.83
2018-03-31T17:14:58.929Z,2.67
2018-03-31T17:17:26.126Z,4.83
2018-03-31T17:19:53.143Z,2.87
2018-03-31T17:22:20.154Z,5.40
2018-03-31T17:24:47.211Z,4.37
2018-03-31T17:27:14.222Z,6.43
2018-03-31T17:29:41.229Z,4.63
2018-03-31T17:32:08.237Z,9.87
2018-03-31T17:34:35.251Z,7.33
2018-03-31T17:37:02.329Z,2.10
2018-03-31T17:39:29.340Z,4.23
2018-03-31T17:41:56.350Z,6.20
2018-03-31T17:44:23.398Z,2.77
2018-03-31T17:46:50.414Z,3.07
2018-03-31T17:49:17.437Z,4.20
2018-03-31T17:51:44.788Z,4.93
2018-03-31T17:54:11.794Z,2.00
2018-03-31T17:56:38.797Z,5.20
2018-03-31T17:59:05.904Z,4.47
2018-03-31T18:01:32.929Z,6.37
2018-03-31T18:03:59.940Z,4.07
2018-03-31T18:06:27.284Z,2.77
2018-03-31T18:08:54.292Z,3.53
2018-03-31T18:11:21.328Z,4.90
2018-03-31T18:13:48.369Z,8.60
2018-03-31T18:16:15.395Z,6.77
2018-03-31T18:18:42.405Z,5.87
2018-03-31T18:21:09.740Z,18.17
2018-03-31T18:23:36.783Z,15.20
2018-03-31T18:26:03.800Z,17.33
2018-03-31T18:28:30.981Z,12.17
2018-03-31T18:30:57.999Z,10.63
2018-03-31T18:33:25.007Z,6.87
2018-03-31T18:35:52.202Z,2.40
2018-03-31T18:38:19.216Z,14.60
2018-03-31T18:40:46.234Z,11.23
2018-03-31T18:43:13.265Z,11.77
2018-03-31T18:45:40.279Z,5.93
2018-03-31T18:48:07.286Z,3.97
2018-03-31T18:50:34.329Z,10.07
2018-03-31T18:53:01.337Z,7.70
2018-03-31T18:55:28.354Z,8.33
2018-03-31T18:57:55.409Z,3.07
2018-03-31T19:00:22.416Z,5.70
2018-03-31T19:02:49.720Z,6.73
2018-03-31T19:05:16.777Z,16.40
2018-03-31T19:07:43.790Z,20.57
2018-03-31T19:10:10.797Z,14.83
2018-03-31T19:12:37.989Z,7.20
2018-03-31T19:15:05.010Z,12.97
2018-03-31T19:17:32.036Z,19.23
2018-03-31T19:19:59.105Z,17.03
2018-03-31T19:22:26.132Z,24.27
2018-03-31T19:24:58.748Z,16.20
2018-03-31T19:27:25.837Z,15.63
2018-03-31T19:29:52.851Z,19.27
2018-03-31T19:32:19.886Z,17.43
2018-03-31T19:34:46.930Z,13.23
2018-03-31T19:37:13.961Z,11.73
2018-03-31T19:39:46.385Z,17.50
2018-03-31T19:42:13.451Z,18.77
2018-03-31T19:44:40.480Z,14.40
2018-03-31T19:47:07.506Z,19.70
2018-03-31T19:49:34.568Z,15.97
2018-03-31T19:52:01.596Z,15.13
2018-03-31T19:54:28.614Z,14.73
2018-03-31T19:56:55.682Z,14.07
2018-03-31T19:59:22.722Z,16.07
2018-03-31T20:01:49.741Z,15.90
2018-03-31T20:04:16.934Z,14.30
2018-03-31T20:06:43.942Z,15.87
2018-03-31T20:09:10.962Z,15.97
2018-03-31T20:11:38.124Z,15.23
2018-03-31T20:14:05.130Z,17.17
2018-03-31T20:16:32.142Z,14.87
2018-03-31T20:18:59.212Z,13.87
2018-03-31T20:21:26.223Z,15.53
2018-03-31T20:23:53.241Z,7.20
2018-03-31T20:26:20.306Z,11.17
2018-03-31T20:28:47.326Z,8.00
2018-03-31T20:31:14.345Z,11.23
2018-03-31T20:33:41.542Z,10.93
2018-03-31T20:36:08.578Z,11.03
2018-03-31T20:38:35.599Z,14.07
2018-03-31T20:41:02.811Z,12.80
2018-03-31T20:43:29.962Z,11.50
2018-03-31T20:45:56.978Z,12.50
2018-03-31T20:48:24.028Z,8.50
2018-03-31T20:50:51.040Z,8.90
2018-03-31T20:53:18.069Z,8.00
2018-03-31T20:55:45.126Z,16.67
2018-03-31T20:58:12.134Z,12.77
2018-03-31T21:00:39.142Z,6.47
2018-03-31T21:03:06.340Z,7.57
2018-03-31T21:05:33.365Z,13.03
2018-03-31T21:08:00.378Z,6.83
2018-03-31T21:10:27.509Z,9.10
2018-03-31T21:12:54.515Z,3.60
2018-03-31T21:15:21.541Z,6.40
2018-03-31T21:17:48.581Z,5.27
2018-03-31T21:20:15.618Z,9.10
2018-03-31T21:22:42.629Z,7.93
2018-03-31T21:25:09.697Z,7.97
2018-03-31T21:27:36.693Z,6.50
2018-03-31T21:30:03.710Z,7.30
2018-03-31T21:32:30.720Z,8.03
2018-03-31T21:34:57.735Z,9.83
2018-03-31T21:37:24.770Z,7.73
2018-03-31T21:39:51.774Z,9.33
2018-03-31T21:42:18.782Z,9.13
2018-03-31T21:44:46.116Z,67.47
2018-03-31T21:47:13.126Z,30.97
2018-03-31T21:49:40.569Z,45.90
2018-03-31T21:52:07.610Z,44.83
2018-03-31T21:54:34.621Z,32.57
2018-03-31T21:57:01.640Z,26.50
2018-03-31T21:59:28.841Z,86.73
2018-03-31T22:01:55.884Z,92.37
2018-03-31T22:04:22.899Z,20.57
2018-03-31T22:06:50.095Z,186.67
2018-03-31T22:09:17.115Z,31.23
2018-03-31T22:11:44.116Z,19.27
2018-03-31T22:14:16.841Z,10.57
2018-03-31T22:16:43.870Z,7.40
2018-03-31T22:19:10.886Z,10.07
2018-03-31T22:21:38.079Z,64.33
2018-03-31T22:24:05.102Z,9.00
2018-03-31T22:26:32.125Z,8.67
2018-03-31T22:28:59.335Z,13.03
2018-03-31T22:31:26.356Z,10.23
2018-03-31T22:33:53.367Z,13.80
2018-03-31T22:36:20.397Z,12.13
2018-03-31T22:38:47.402Z,12.37
2018-03-31T22:41:14.417Z,7.27
2018-03-31T22:43:41.466Z,9.97
2018-03-31T22:46:08.470Z,7.80
2018-03-31T22:48:35.481Z,6.10
2018-03-31T22:51:02.673Z,23.47
2018-03-31T22:53:29.672Z,16.23
2018-03-31T22:55:56.685Z,10.00
2018-03-31T22:58:23.822Z,15.27
2018-03-31T23:00:50.833Z,16.07
2018-03-31T23:03:17.844Z,15.47
2018-03-31T23:05:44.885Z,10.43
2018-03-31T23:08:11.903Z,12.57
2018-03-31T23:10:38.928Z,11.03
2018-03-31T23:13:06.127Z,9.27
2018-03-31T23:15:33.137Z,10.47
2018-03-31T23:18:00.138Z,6.50
2018-03-31T23:20:27.341Z,12.07
2018-03-31T23:22:54.367Z,10.97
2018-03-31T23:25:21.374Z,10.17
2018-03-31T23:27:48.442Z,15.03
2018-03-31T23:30:15.437Z,5.03
2018-03-31T23:32:42.440Z,17.30
2018-03-31T23:35:09.625Z,9.57
2018-03-31T23:37:36.653Z,7.80
2018-03-31T23:40:03.666Z,13.17
2018-03-31T23:42:30.814Z,9.97
2018-03-31T23:44:57.849Z,8.27
2018-03-31T23:47:24.869Z,6.70
2018-03-31T23:49:52.018Z,9.27
2018-03-31T23:52:19.034Z,114.27
2018-03-31T23:54:46.044Z,11.53
2018-03-31T23:57:13.082Z,18.60
2018-03-31T23:59:40.098Z,9.53
